sensor_id;sensor_type;location;lat;lon;timestamp;P1;durP1;ratioP1;P2;durP2;ratioP2
28519;SDS011;15732;48.534;20.382;2022-12-29T00:02:26;48.05;;;14.30;;
28519;SDS011;15732;48.534;20.382;2022-12-29T00:04:53;41.05;;;15.55;;
28519;SDS011;15732;48.534;20.382;2022-12-29T00:07:20;43.63;;;17.85;;
28519;SDS011;15732;48.534;20.382;2022-12-29T00:09:48;47.28;;;18.60;;
28519;SDS011;15732;48.534;20.382;2022-12-29T00:12:15;36.33;;;15.48;;
28519;SDS011;15732;48.534;20.382;2022-12-29T00:14:43;51.00;;;20.27;;
28519;SDS011;15732;48.534;20.382;2022-12-29T00:17:29;50.45;;;16.45;;
28519;SDS011;15732;48.534;20.382;2022-12-29T00:19:56;30.40;;;11.65;;
28519;SDS011;15732;48.534;20.382;2022-12-29T00:22:42;42.78;;;16.73;;
28519;SDS011;15732;48.534;20.382;2022-12-29T00:25:27;44.08;;;12.63;;
28519;SDS011;15732;48.534;20.382;2022-12-29T00:28:13;31.17;;;13.85;;
28519;SDS011;15732;48.534;20.382;2022-12-29T00:30:59;36.05;;;12.05;;
28519;SDS011;15732;48.534;20.382;2022-12-29T00:33:44;29.55;;;11.57;;
28519;SDS011;15732;48.534;20.382;2022-12-29T00:39:22;30.95;;;10.95;;
28519;SDS011;15732;48.534;20.382;2022-12-29T00:42:08;27.77;;;9.68;;
28519;SDS011;15732;48.534;20.382;2022-12-29T00:45:04;29.23;;;9.85;;
28519;SDS011;15732;48.534;20.382;2022-12-29T00:47:33;24.77;;;10.63;;
28519;SDS011;15732;48.534;20.382;2022-12-29T00:50:00;23.10;;;8.32;;
28519;SDS011;15732;48.534;20.382;2022-12-29T00:52:27;30.42;;;10.95;;
28519;SDS011;15732;48.534;20.382;2022-12-29T00:54:54;26.25;;;10.07;;
28519;SDS011;15732;48.534;20.382;2022-12-29T00:57:22;27.35;;;10.45;;
28519;SDS011;15732;48.534;20.382;2022-12-29T00:59:49;26.65;;;8.07;;
28519;SDS011;15732;48.534;20.382;2022-12-29T01:02:16;16.83;;;5.90;;
28519;SDS011;15732;48.534;20.382;2022-12-29T01:04:44;21.10;;;7.72;;
28519;SDS011;15732;48.534;20.382;2022-12-29T01:07:11;19.67;;;7.40;;
28519;SDS011;15732;48.534;20.382;2022-12-29T01:09:39;19.38;;;7.35;;
28519;SDS011;15732;48.534;20.382;2022-12-29T01:12:25;22.38;;;9.07;;
28519;SDS011;15732;48.534;20.382;2022-12-29T01:15:08;22.63;;;8.70;;
28519;SDS011;15732;48.534;20.382;2022-12-29T01:20:03;21.95;;;7.30;;
28519;SDS011;15732;48.534;20.382;2022-12-29T01:22:31;19.58;;;8.77;;
28519;SDS011;15732;48.534;20.382;2022-12-29T01:24:59;19.02;;;9.27;;
28519;SDS011;15732;48.534;20.382;2022-12-29T01:27:27;22.08;;;9.07;;
28519;SDS011;15732;48.534;20.382;2022-12-29T01:29:55;28.25;;;11.65;;
28519;SDS011;15732;48.534;20.382;2022-12-29T01:32:22;27.33;;;10.57;;
28519;SDS011;15732;48.534;20.382;2022-12-29T01:34:49;27.25;;;11.88;;
28519;SDS011;15732;48.534;20.382;2022-12-29T01:37:17;41.72;;;11.85;;
28519;SDS011;15732;48.534;20.382;2022-12-29T01:39:44;29.67;;;8.77;;
28519;SDS011;15732;48.534;20.382;2022-12-29T01:42:14;32.38;;;10.82;;
28519;SDS011;15732;48.534;20.382;2022-12-29T01:44:55;28.20;;;9.88;;
28519;SDS011;15732;48.534;20.382;2022-12-29T01:47:38;22.63;;;10.25;;
28519;SDS011;15732;48.534;20.382;2022-12-29T01:50:32;15.65;;;8.25;;
28519;SDS011;15732;48.534;20.382;2022-12-29T01:55:42;19.92;;;8.15;;
28519;SDS011;15732;48.534;20.382;2022-12-29T01:58:12;19.77;;;8.30;;
28519;SDS011;15732;48.534;20.382;2022-12-29T02:00:43;29.30;;;8.63;;
28519;SDS011;15732;48.534;20.382;2022-12-29T02:03:11;22.73;;;6.70;;
28519;SDS011;15732;48.534;20.382;2022-12-29T02:05:43;17.63;;;8.63;;
28519;SDS011;15732;48.534;20.382;2022-12-29T02:08:16;34.90;;;8.13;;
28519;SDS011;15732;48.534;20.382;2022-12-29T02:10:44;21.88;;;8.15;;
28519;SDS011;15732;48.534;20.382;2022-12-29T02:13:11;18.00;;;9.75;;
28519;SDS011;15732;48.534;20.382;2022-12-29T02:24:07;27.48;;;8.00;;
28519;SDS011;15732;48.534;20.382;2022-12-29T02:32:37;22.63;;;9.25;;
28519;SDS011;15732;48.534;20.382;2022-12-29T02:35:14;28.50;;;9.52;;
28519;SDS011;15732;48.534;20.382;2022-12-29T02:38:31;22.20;;;8.63;;
28519;SDS011;15732;48.534;20.382;2022-12-29T02:43:27;16.80;;;7.35;;
28519;SDS011;15732;48.534;20.382;2022-12-29T02:46:11;19.40;;;8.23;;
28519;SDS011;15732;48.534;20.382;2022-12-29T02:52:18;24.45;;;9.63;;
28519;SDS011;15732;48.534;20.382;2022-12-29T02:54:40;25.25;;;10.77;;
28519;SDS011;15732;48.534;20.382;2022-12-29T03:02:28;29.88;;;11.88;;
28519;SDS011;15732;48.534;20.382;2022-12-29T03:13:28;19.35;;;6.28;;
28519;SDS011;15732;48.534;20.382;2022-12-29T03:19:07;21.38;;;7.85;;
28519;SDS011;15732;48.534;20.382;2022-12-29T03:21:45;18.27;;;8.10;;
28519;SDS011;15732;48.534;20.382;2022-12-29T03:24:45;13.88;;;6.25;;
28519;SDS011;15732;48.534;20.382;2022-12-29T03:27:19;17.67;;;7.22;;
28519;SDS011;15732;48.534;20.382;2022-12-29T03:30:11;22.17;;;9.10;;
28519;SDS011;15732;48.534;20.382;2022-12-29T03:32:46;11.23;;;5.13;;
28519;SDS011;15732;48.534;20.382;2022-12-29T03:35:30;25.75;;;8.77;;
28519;SDS011;15732;48.534;20.382;2022-12-29T03:41:11;16.80;;;9.32;;
28519;SDS011;15732;48.534;20.382;2022-12-29T03:43:44;19.00;;;7.75;;
28519;SDS011;15732;48.534;20.382;2022-12-29T03:46:11;13.87;;;6.43;;
28519;SDS011;15732;48.534;20.382;2022-12-29T03:48:38;17.55;;;8.27;;
28519;SDS011;15732;48.534;20.382;2022-12-29T03:51:05;18.58;;;6.45;;
28519;SDS011;15732;48.534;20.382;2022-12-29T03:53:33;12.00;;;5.90;;
28519;SDS011;15732;48.534;20.382;2022-12-29T03:56:00;17.85;;;7.40;;
28519;SDS011;15732;48.534;20.382;2022-12-29T03:58:31;16.27;;;7.70;;
28519;SDS011;15732;48.534;20.382;2022-12-29T04:00:58;15.52;;;6.82;;
28519;SDS011;15732;48.534;20.382;2022-12-29T04:03:25;18.08;;;7.00;;
28519;SDS011;15732;48.534;20.382;2022-12-29T04:05:53;24.00;;;7.90;;
28519;SDS011;15732;48.534;20.382;2022-12-29T04:08:20;24.73;;;8.18;;
28519;SDS011;15732;48.534;20.382;2022-12-29T04:10:48;21.73;;;7.72;;
28519;SDS011;15732;48.534;20.382;2022-12-29T04:13:16;14.38;;;6.47;;
28519;SDS011;15732;48.534;20.382;2022-12-29T04:15:47;26.90;;;9.65;;
28519;SDS011;15732;48.534;20.382;2022-12-29T04:18:14;26.10;;;11.82;;
28519;SDS011;15732;48.534;20.382;2022-12-29T04:20:42;19.83;;;8.52;;
28519;SDS011;15732;48.534;20.382;2022-12-29T04:23:26;20.67;;;7.43;;
28519;SDS011;15732;48.534;20.382;2022-12-29T04:25:57;19.17;;;8.55;;
28519;SDS011;15732;48.534;20.382;2022-12-29T04:28:24;17.23;;;7.18;;
28519;SDS011;15732;48.534;20.382;2022-12-29T04:30:52;22.38;;;9.05;;
28519;SDS011;15732;48.534;20.382;2022-12-29T04:33:19;38.67;;;11.18;;
28519;SDS011;15732;48.534;20.382;2022-12-29T04:35:47;22.60;;;10.23;;
28519;SDS011;15732;48.534;20.382;2022-12-29T04:38:14;21.42;;;9.48;;
28519;SDS011;15732;48.534;20.382;2022-12-29T04:40:42;26.20;;;8.25;;
28519;SDS011;15732;48.534;20.382;2022-12-29T04:43:09;19.05;;;8.55;;
28519;SDS011;15732;48.534;20.382;2022-12-29T04:45:37;21.85;;;7.95;;
28519;SDS011;15732;48.534;20.382;2022-12-29T04:48:05;17.45;;;7.35;;
28519;SDS011;15732;48.534;20.382;2022-12-29T04:50:33;25.02;;;10.13;;
28519;SDS011;15732;48.534;20.382;2022-12-29T04:53:00;19.80;;;8.75;;
28519;SDS011;15732;48.534;20.382;2022-12-29T04:55:28;16.30;;;7.15;;
28519;SDS011;15732;48.534;20.382;2022-12-29T04:57:55;18.70;;;8.45;;
28519;SDS011;15732;48.534;20.382;2022-12-29T05:00:22;17.27;;;7.70;;
28519;SDS011;15732;48.534;20.382;2022-12-29T05:02:49;20.85;;;8.82;;
28519;SDS011;15732;48.534;20.382;2022-12-29T05:05:16;25.50;;;8.98;;
28519;SDS011;15732;48.534;20.382;2022-12-29T05:07:44;24.08;;;8.70;;
28519;SDS011;15732;48.534;20.382;2022-12-29T05:10:11;25.83;;;8.68;;
28519;SDS011;15732;48.534;20.382;2022-12-29T05:12:38;14.80;;;6.95;;
28519;SDS011;15732;48.534;20.382;2022-12-29T05:15:06;12.23;;;4.75;;
28519;SDS011;15732;48.534;20.382;2022-12-29T05:17:34;14.15;;;6.28;;
28519;SDS011;15732;48.534;20.382;2022-12-29T05:20:01;10.02;;;4.53;;
28519;SDS011;15732;48.534;20.382;2022-12-29T05:22:29;13.73;;;6.80;;
28519;SDS011;15732;48.534;20.382;2022-12-29T05:24:57;16.13;;;5.07;;
28519;SDS011;15732;48.534;20.382;2022-12-29T05:27:24;12.38;;;5.40;;
28519;SDS011;15732;48.534;20.382;2022-12-29T05:29:51;16.52;;;5.90;;
28519;SDS011;15732;48.534;20.382;2022-12-29T05:32:18;16.95;;;6.03;;
28519;SDS011;15732;48.534;20.382;2022-12-29T05:34:46;9.40;;;5.10;;
28519;SDS011;15732;48.534;20.382;2022-12-29T05:37:13;17.17;;;4.88;;
28519;SDS011;15732;48.534;20.382;2022-12-29T05:39:41;10.35;;;4.18;;
28519;SDS011;15732;48.534;20.382;2022-12-29T05:42:08;13.68;;;5.22;;
28519;SDS011;15732;48.534;20.382;2022-12-29T05:44:35;11.82;;;4.50;;
28519;SDS011;15732;48.534;20.382;2022-12-29T05:47:03;12.18;;;5.53;;
28519;SDS011;15732;48.534;20.382;2022-12-29T05:49:30;11.98;;;5.13;;
28519;SDS011;15732;48.534;20.382;2022-12-29T05:51:57;15.63;;;5.97;;
28519;SDS011;15732;48.534;20.382;2022-12-29T05:54:25;16.58;;;4.80;;
28519;SDS011;15732;48.534;20.382;2022-12-29T05:56:52;12.48;;;5.50;;
28519;SDS011;15732;48.534;20.382;2022-12-29T05:59:24;12.77;;;6.18;;
28519;SDS011;15732;48.534;20.382;2022-12-29T06:01:51;12.45;;;5.45;;
28519;SDS011;15732;48.534;20.382;2022-12-29T06:04:19;13.48;;;5.00;;
28519;SDS011;15732;48.534;20.382;2022-12-29T06:06:46;17.33;;;5.72;;
28519;SDS011;15732;48.534;20.382;2022-12-29T06:09:17;15.13;;;6.25;;
28519;SDS011;15732;48.534;20.382;2022-12-29T06:11:44;14.75;;;5.88;;
28519;SDS011;15732;48.534;20.382;2022-12-29T06:14:11;15.25;;;4.80;;
28519;SDS011;15732;48.534;20.382;2022-12-29T06:16:39;14.40;;;4.38;;
28519;SDS011;15732;48.534;20.382;2022-12-29T06:19:07;12.68;;;4.40;;
28519;SDS011;15732;48.534;20.382;2022-12-29T06:21:35;14.00;;;6.13;;
28519;SDS011;15732;48.534;20.382;2022-12-29T06:24:04;8.35;;;4.72;;
28519;SDS011;15732;48.534;20.382;2022-12-29T06:26:31;11.50;;;4.88;;
28519;SDS011;15732;48.534;20.382;2022-12-29T06:28:58;14.95;;;4.95;;
28519;SDS011;15732;48.534;20.382;2022-12-29T06:31:26;10.70;;;4.25;;
28519;SDS011;15732;48.534;20.382;2022-12-29T06:33:53;9.38;;;4.72;;
28519;SDS011;15732;48.534;20.382;2022-12-29T06:36:21;8.50;;;4.53;;
28519;SDS011;15732;48.534;20.382;2022-12-29T06:38:48;11.10;;;4.60;;
28519;SDS011;15732;48.534;20.382;2022-12-29T06:41:19;10.07;;;5.25;;
28519;SDS011;15732;48.534;20.382;2022-12-29T06:43:46;10.07;;;5.18;;
28519;SDS011;15732;48.534;20.382;2022-12-29T06:46:14;13.15;;;4.93;;
28519;SDS011;15732;48.534;20.382;2022-12-29T06:48:41;15.70;;;5.40;;
28519;SDS011;15732;48.534;20.382;2022-12-29T06:51:08;18.23;;;6.97;;
28519;SDS011;15732;48.534;20.382;2022-12-29T06:53:35;19.50;;;6.55;;
28519;SDS011;15732;48.534;20.382;2022-12-29T06:56:02;20.48;;;6.72;;
28519;SDS011;15732;48.534;20.382;2022-12-29T06:58:30;10.85;;;4.68;;
28519;SDS011;15732;48.534;20.382;2022-12-29T07:00:58;7.90;;;3.97;;
28519;SDS011;15732;48.534;20.382;2022-12-29T07:03:25;11.85;;;5.35;;
28519;SDS011;15732;48.534;20.382;2022-12-29T07:05:52;12.63;;;5.65;;
28519;SDS011;15732;48.534;20.382;2022-12-29T07:08:20;13.30;;;4.60;;
28519;SDS011;15732;48.534;20.382;2022-12-29T07:10:51;15.15;;;6.65;;
28519;SDS011;15732;48.534;20.382;2022-12-29T07:13:18;14.15;;;6.10;;
28519;SDS011;15732;48.534;20.382;2022-12-29T07:15:46;10.40;;;5.40;;
28519;SDS011;15732;48.534;20.382;2022-12-29T07:18:17;11.27;;;5.60;;
28519;SDS011;15732;48.534;20.382;2022-12-29T07:20:44;15.30;;;5.93;;
28519;SDS011;15732;48.534;20.382;2022-12-29T07:23:12;14.13;;;5.68;;
28519;SDS011;15732;48.534;20.382;2022-12-29T07:25:39;17.67;;;6.10;;
28519;SDS011;15732;48.534;20.382;2022-12-29T07:28:07;14.00;;;6.07;;
28519;SDS011;15732;48.534;20.382;2022-12-29T07:30:36;14.20;;;5.97;;
28519;SDS011;15732;48.534;20.382;2022-12-29T07:33:04;12.57;;;6.13;;
28519;SDS011;15732;48.534;20.382;2022-12-29T07:35:35;16.27;;;5.65;;
28519;SDS011;15732;48.534;20.382;2022-12-29T07:38:03;17.52;;;6.85;;
28519;SDS011;15732;48.534;20.382;2022-12-29T07:40:30;15.10;;;4.95;;
28519;SDS011;15732;48.534;20.382;2022-12-29T07:42:58;16.67;;;7.30;;
28519;SDS011;15732;48.534;20.382;2022-12-29T07:45:25;17.20;;;7.78;;
28519;SDS011;15732;48.534;20.382;2022-12-29T07:47:53;44.05;;;14.30;;
28519;SDS011;15732;48.534;20.382;2022-12-29T07:50:20;54.10;;;18.67;;
28519;SDS011;15732;48.534;20.382;2022-12-29T07:52:48;58.13;;;20.88;;
28519;SDS011;15732;48.534;20.382;2022-12-29T07:55:15;43.13;;;14.23;;
28519;SDS011;15732;48.534;20.382;2022-12-29T07:57:42;20.25;;;9.05;;
28519;SDS011;15732;48.534;20.382;2022-12-29T08:00:10;24.17;;;9.48;;
28519;SDS011;15732;48.534;20.382;2022-12-29T08:02:39;26.88;;;10.00;;
28519;SDS011;15732;48.534;20.382;2022-12-29T08:05:06;26.70;;;11.55;;
28519;SDS011;15732;48.534;20.382;2022-12-29T08:07:34;44.70;;;14.48;;
28519;SDS011;15732;48.534;20.382;2022-12-29T08:10:02;21.17;;;8.95;;
28519;SDS011;15732;48.534;20.382;2022-12-29T08:12:30;20.73;;;7.93;;
28519;SDS011;15732;48.534;20.382;2022-12-29T08:14:57;20.30;;;7.75;;
28519;SDS011;15732;48.534;20.382;2022-12-29T08:17:24;17.95;;;7.55;;
28519;SDS011;15732;48.534;20.382;2022-12-29T08:19:52;18.27;;;7.05;;
28519;SDS011;15732;48.534;20.382;2022-12-29T08:22:19;19.90;;;9.00;;
28519;SDS011;15732;48.534;20.382;2022-12-29T08:24:47;18.48;;;6.30;;
28519;SDS011;15732;48.534;20.382;2022-12-29T08:27:14;21.33;;;6.93;;
28519;SDS011;15732;48.534;20.382;2022-12-29T08:29:41;19.98;;;8.38;;
28519;SDS011;15732;48.534;20.382;2022-12-29T08:32:09;22.15;;;8.20;;
28519;SDS011;15732;48.534;20.382;2022-12-29T08:34:36;9.05;;;5.18;;
28519;SDS011;15732;48.534;20.382;2022-12-29T08:37:03;12.98;;;6.30;;
28519;SDS011;15732;48.534;20.382;2022-12-29T08:39:31;13.70;;;5.68;;
28519;SDS011;15732;48.534;20.382;2022-12-29T08:41:58;16.80;;;5.72;;
28519;SDS011;15732;48.534;20.382;2022-12-29T08:44:25;18.70;;;6.45;;
28519;SDS011;15732;48.534;20.382;2022-12-29T08:46:53;16.23;;;5.45;;
28519;SDS011;15732;48.534;20.382;2022-12-29T08:49:20;10.73;;;5.63;;
28519;SDS011;15732;48.534;20.382;2022-12-29T08:51:47;24.65;;;10.38;;
28519;SDS011;15732;48.534;20.382;2022-12-29T08:54:15;21.83;;;9.35;;
28519;SDS011;15732;48.534;20.382;2022-12-29T08:56:42;17.77;;;7.82;;
28519;SDS011;15732;48.534;20.382;2022-12-29T08:59:10;18.67;;;6.85;;
28519;SDS011;15732;48.534;20.382;2022-12-29T09:01:40;17.00;;;6.82;;
28519;SDS011;15732;48.534;20.382;2022-12-29T09:04:08;22.77;;;7.13;;
28519;SDS011;15732;48.534;20.382;2022-12-29T09:06:35;21.33;;;6.90;;
28519;SDS011;15732;48.534;20.382;2022-12-29T09:09:03;21.27;;;8.65;;
28519;SDS011;15732;48.534;20.382;2022-12-29T09:11:30;18.98;;;8.95;;
28519;SDS011;15732;48.534;20.382;2022-12-29T09:13:57;17.75;;;6.93;;
28519;SDS011;15732;48.534;20.382;2022-12-29T09:16:25;11.68;;;5.15;;
28519;SDS011;15732;48.534;20.382;2022-12-29T09:18:56;12.25;;;4.82;;
28519;SDS011;15732;48.534;20.382;2022-12-29T09:21:24;8.25;;;4.72;;
28519;SDS011;15732;48.534;20.382;2022-12-29T09:23:51;16.50;;;6.90;;
28519;SDS011;15732;48.534;20.382;2022-12-29T09:26:19;20.63;;;7.72;;
28519;SDS011;15732;48.534;20.382;2022-12-29T09:28:50;16.52;;;7.05;;
28519;SDS011;15732;48.534;20.382;2022-12-29T09:31:17;19.20;;;7.20;;
28519;SDS011;15732;48.534;20.382;2022-12-29T09:33:45;10.55;;;5.78;;
28519;SDS011;15732;48.534;20.382;2022-12-29T09:36:12;14.40;;;5.38;;
28519;SDS011;15732;48.534;20.382;2022-12-29T09:38:40;19.52;;;7.10;;
28519;SDS011;15732;48.534;20.382;2022-12-29T09:46:47;14.15;;;6.40;;
28519;SDS011;15732;48.534;20.382;2022-12-29T09:50:02;24.42;;;11.05;;
28519;SDS011;15732;48.534;20.382;2022-12-29T09:52:08;28.48;;;9.73;;
28519;SDS011;15732;48.534;20.382;2022-12-29T09:54:53;16.52;;;8.60;;
28519;SDS011;15732;48.534;20.382;2022-12-29T09:57:35;14.40;;;6.00;;
28519;SDS011;15732;48.534;20.382;2022-12-29T10:00:18;21.45;;;8.35;;
28519;SDS011;15732;48.534;20.382;2022-12-29T10:02:55;17.05;;;6.88;;
28519;SDS011;15732;48.534;20.382;2022-12-29T10:08:12;30.90;;;10.18;;
28519;SDS011;15732;48.534;20.382;2022-12-29T10:10:55;28.52;;;10.18;;
28519;SDS011;15732;48.534;20.382;2022-12-29T10:19:00;30.02;;;13.48;;
28519;SDS011;15732;48.534;20.382;2022-12-29T10:24:33;28.80;;;11.07;;
28519;SDS011;15732;48.534;20.382;2022-12-29T10:27:03;24.80;;;9.15;;
28519;SDS011;15732;48.534;20.382;2022-12-29T10:29:40;17.30;;;6.97;;
28519;SDS011;15732;48.534;20.382;2022-12-29T10:32:20;15.10;;;5.53;;
28519;SDS011;15732;48.534;20.382;2022-12-29T10:35:19;15.88;;;6.60;;
28519;SDS011;15732;48.534;20.382;2022-12-29T10:40:25;17.33;;;7.68;;
28519;SDS011;15732;48.534;20.382;2022-12-29T10:42:59;16.90;;;7.60;;
28519;SDS011;15732;48.534;20.382;2022-12-29T10:45:29;15.73;;;6.53;;
28519;SDS011;15732;48.534;20.382;2022-12-29T10:50:31;14.38;;;6.93;;
28519;SDS011;15732;48.534;20.382;2022-12-29T10:52:58;21.30;;;7.32;;
28519;SDS011;15732;48.534;20.382;2022-12-29T10:55:30;20.92;;;8.38;;
28519;SDS011;15732;48.534;20.382;2022-12-29T10:58:04;20.40;;;7.50;;
28519;SDS011;15732;48.534;20.382;2022-12-29T11:09:01;25.52;;;7.30;;
28519;SDS011;15732;48.534;20.382;2022-12-29T11:11:35;15.23;;;7.28;;
28519;SDS011;15732;48.534;20.382;2022-12-29T11:14:11;18.13;;;7.78;;
28519;SDS011;15732;48.534;20.382;2022-12-29T11:16:40;16.17;;;6.20;;
28519;SDS011;15732;48.534;20.382;2022-12-29T11:19:22;12.10;;;5.75;;
28519;SDS011;15732;48.534;20.382;2022-12-29T11:21:54;12.30;;;6.28;;
28519;SDS011;15732;48.534;20.382;2022-12-29T11:24:23;21.15;;;7.53;;
28519;SDS011;15732;48.534;20.382;2022-12-29T11:26:53;14.50;;;6.78;;
28519;SDS011;15732;48.534;20.382;2022-12-29T11:29:24;26.08;;;9.02;;
28519;SDS011;15732;48.534;20.382;2022-12-29T11:31:56;29.25;;;7.40;;
28519;SDS011;15732;48.534;20.382;2022-12-29T11:34:25;20.83;;;7.32;;
28519;SDS011;15732;48.534;20.382;2022-12-29T11:37:03;17.45;;;7.65;;
28519;SDS011;15732;48.534;20.382;2022-12-29T11:39:44;19.42;;;7.18;;
28519;SDS011;15732;48.534;20.382;2022-12-29T11:42:24;17.17;;;6.80;;
28519;SDS011;15732;48.534;20.382;2022-12-29T11:47:52;12.60;;;6.32;;
28519;SDS011;15732;48.534;20.382;2022-12-29T11:50:23;25.65;;;8.85;;
28519;SDS011;15732;48.534;20.382;2022-12-29T11:53:15;14.85;;;6.85;;
28519;SDS011;15732;48.534;20.382;2022-12-29T11:58:17;17.52;;;6.35;;
28519;SDS011;15732;48.534;20.382;2022-12-29T12:00:44;17.05;;;7.40;;
28519;SDS011;15732;48.534;20.382;2022-12-29T12:03:23;18.52;;;7.38;;
28519;SDS011;15732;48.534;20.382;2022-12-29T12:05:54;14.15;;;6.90;;
28519;SDS011;15732;48.534;20.382;2022-12-29T12:08:37;58.17;;;10.85;;
28519;SDS011;15732;48.534;20.382;2022-12-29T12:17:05;19.42;;;9.60;;
28519;SDS011;15732;48.534;20.382;2022-12-29T12:22:20;23.67;;;6.93;;
28519;SDS011;15732;48.534;20.382;2022-12-29T12:24:58;28.33;;;10.70;;
28519;SDS011;15732;48.534;20.382;2022-12-29T12:27:31;21.97;;;6.87;;
28519;SDS011;15732;48.534;20.382;2022-12-29T12:30:14;23.92;;;8.23;;
28519;SDS011;15732;48.534;20.382;2022-12-29T12:33:00;16.98;;;7.82;;
28519;SDS011;15732;48.534;20.382;2022-12-29T12:52:09;23.90;;;8.00;;
28519;SDS011;15732;48.534;20.382;2022-12-29T12:54:54;20.02;;;7.28;;
28519;SDS011;15732;48.534;20.382;2022-12-29T13:00:12;23.38;;;9.55;;
28519;SDS011;15732;48.534;20.382;2022-12-29T13:03:05;17.02;;;7.63;;
28519;SDS011;15732;48.534;20.382;2022-12-29T13:05:57;17.40;;;9.13;;
28519;SDS011;15732;48.534;20.382;2022-12-29T13:08:47;19.58;;;9.07;;
28519;SDS011;15732;48.534;20.382;2022-12-29T13:11:29;30.45;;;8.77;;
28519;SDS011;15732;48.534;20.382;2022-12-29T13:19:39;22.15;;;8.02;;
28519;SDS011;15732;48.534;20.382;2022-12-29T13:30:28;17.30;;;6.97;;
28519;SDS011;15732;48.534;20.382;2022-12-29T13:38:46;20.98;;;8.38;;
28519;SDS011;15732;48.534;20.382;2022-12-29T13:41:30;22.55;;;9.90;;
28519;SDS011;15732;48.534;20.382;2022-12-29T13:44:05;28.58;;;11.20;;
28519;SDS011;15732;48.534;20.382;2022-12-29T13:46:39;28.60;;;9.55;;
28519;SDS011;15732;48.534;20.382;2022-12-29T13:52:05;18.48;;;8.57;;
28519;SDS011;15732;48.534;20.382;2022-12-29T14:00:22;20.98;;;8.00;;
28519;SDS011;15732;48.534;20.382;2022-12-29T14:09:01;36.63;;;12.73;;
28519;SDS011;15732;48.534;20.382;2022-12-29T14:11:33;32.20;;;13.50;;
28519;SDS011;15732;48.534;20.382;2022-12-29T14:14:10;40.80;;;14.60;;
28519;SDS011;15732;48.534;20.382;2022-12-29T14:16:40;33.75;;;13.00;;
28519;SDS011;15732;48.534;20.382;2022-12-29T14:19:15;26.40;;;10.38;;
28519;SDS011;15732;48.534;20.382;2022-12-29T14:24:47;21.67;;;8.63;;
28519;SDS011;15732;48.534;20.382;2022-12-29T14:35:32;41.10;;;17.73;;
28519;SDS011;15732;48.534;20.382;2022-12-29T14:41:17;43.45;;;14.75;;
28519;SDS011;15732;48.534;20.382;2022-12-29T14:46:43;20.88;;;8.60;;
28519;SDS011;15732;48.534;20.382;2022-12-29T14:49:33;25.13;;;10.45;;
28519;SDS011;15732;48.534;20.382;2022-12-29T14:52:20;24.90;;;8.50;;
28519;SDS011;15732;48.534;20.382;2022-12-29T14:54:54;17.08;;;7.20;;
28519;SDS011;15732;48.534;20.382;2022-12-29T14:57:44;27.02;;;8.45;;
28519;SDS011;15732;48.534;20.382;2022-12-29T15:00:25;33.40;;;14.70;;
28519;SDS011;15732;48.534;20.382;2022-12-29T15:03:06;53.13;;;21.10;;
28519;SDS011;15732;48.534;20.382;2022-12-29T15:05:41;76.32;;;26.50;;
28519;SDS011;15732;48.534;20.382;2022-12-29T15:08:24;40.55;;;17.33;;
28519;SDS011;15732;48.534;20.382;2022-12-29T15:16:52;38.80;;;15.95;;
28519;SDS011;15732;48.534;20.382;2022-12-29T15:19:23;51.83;;;19.88;;
28519;SDS011;15732;48.534;20.382;2022-12-29T15:21:52;48.42;;;20.58;;
28519;SDS011;15732;48.534;20.382;2022-12-29T15:26:51;38.17;;;14.98;;
28519;SDS011;15732;48.534;20.382;2022-12-29T15:29:37;30.48;;;13.30;;
28519;SDS011;15732;48.534;20.382;2022-12-29T15:34:41;23.05;;;7.97;;
28519;SDS011;15732;48.534;20.382;2022-12-29T15:37:15;12.25;;;5.85;;
28519;SDS011;15732;48.534;20.382;2022-12-29T15:40:19;14.70;;;5.25;;
28519;SDS011;15732;48.534;20.382;2022-12-29T15:45:29;12.07;;;5.35;;
28519;SDS011;15732;48.534;20.382;2022-12-29T15:48:04;11.07;;;4.85;;
28519;SDS011;15732;48.534;20.382;2022-12-29T15:50:36;8.75;;;4.57;;
28519;SDS011;15732;48.534;20.382;2022-12-29T15:53:11;10.88;;;5.88;;
28519;SDS011;15732;48.534;20.382;2022-12-29T15:55:44;15.95;;;8.18;;
28519;SDS011;15732;48.534;20.382;2022-12-29T15:58:24;39.95;;;16.10;;
28519;SDS011;15732;48.534;20.382;2022-12-29T16:01:02;37.92;;;16.83;;
28519;SDS011;15732;48.534;20.382;2022-12-29T16:04:06;28.33;;;11.95;;
28519;SDS011;15732;48.534;20.382;2022-12-29T16:06:39;32.10;;;12.40;;
28519;SDS011;15732;48.534;20.382;2022-12-29T16:09:29;32.72;;;11.02;;
28519;SDS011;15732;48.534;20.382;2022-12-29T16:12:04;20.00;;;9.15;;
28519;SDS011;15732;48.534;20.382;2022-12-29T16:14:37;22.35;;;9.82;;
28519;SDS011;15732;48.534;20.382;2022-12-29T16:17:11;22.70;;;7.93;;
28519;SDS011;15732;48.534;20.382;2022-12-29T16:19:49;26.38;;;11.07;;
28519;SDS011;15732;48.534;20.382;2022-12-29T16:22:40;21.73;;;9.68;;
28519;SDS011;15732;48.534;20.382;2022-12-29T16:28:00;16.63;;;7.07;;
28519;SDS011;15732;48.534;20.382;2022-12-29T16:31:05;15.90;;;5.95;;
28519;SDS011;15732;48.534;20.382;2022-12-29T16:33:48;12.85;;;5.60;;
28519;SDS011;15732;48.534;20.382;2022-12-29T16:36:34;11.85;;;5.20;;
28519;SDS011;15732;48.534;20.382;2022-12-29T16:39:17;9.80;;;5.10;;
28519;SDS011;15732;48.534;20.382;2022-12-29T16:41:52;29.52;;;8.15;;
28519;SDS011;15732;48.534;20.382;2022-12-29T16:44:24;35.27;;;13.90;;
28519;SDS011;15732;48.534;20.382;2022-12-29T16:49:22;29.63;;;11.55;;
28519;SDS011;15732;48.534;20.382;2022-12-29T16:51:49;22.50;;;9.77;;
28519;SDS011;15732;48.534;20.382;2022-12-29T16:57:01;25.90;;;10.43;;
28519;SDS011;15732;48.534;20.382;2022-12-29T17:01:59;22.08;;;8.15;;
28519;SDS011;15732;48.534;20.382;2022-12-29T17:04:31;19.08;;;10.15;;
28519;SDS011;15732;48.534;20.382;2022-12-29T17:07:02;22.15;;;10.02;;
28519;SDS011;15732;48.534;20.382;2022-12-29T17:09:34;31.00;;;9.95;;
28519;SDS011;15732;48.534;20.382;2022-12-29T17:12:02;24.75;;;10.98;;
28519;SDS011;15732;48.534;20.382;2022-12-29T17:17:16;32.00;;;13.57;;
28519;SDS011;15732;48.534;20.382;2022-12-29T17:19:55;34.83;;;13.23;;
28519;SDS011;15732;48.534;20.382;2022-12-29T17:22:28;35.88;;;13.38;;
28519;SDS011;15732;48.534;20.382;2022-12-29T17:24:56;26.85;;;12.75;;
28519;SDS011;15732;48.534;20.382;2022-12-29T17:30:26;24.20;;;8.77;;
28519;SDS011;15732;48.534;20.382;2022-12-29T17:35:24;18.65;;;8.60;;
28519;SDS011;15732;48.534;20.382;2022-12-29T17:37:51;23.10;;;10.00;;
28519;SDS011;15732;48.534;20.382;2022-12-29T17:40:23;16.50;;;8.43;;
28519;SDS011;15732;48.534;20.382;2022-12-29T17:42:56;17.60;;;6.88;;
28519;SDS011;15732;48.534;20.382;2022-12-29T17:45:26;19.95;;;7.38;;
28519;SDS011;15732;48.534;20.382;2022-12-29T17:47:55;20.67;;;8.88;;
28519;SDS011;15732;48.534;20.382;2022-12-29T17:50:26;21.35;;;7.68;;
28519;SDS011;15732;48.534;20.382;2022-12-29T17:52:58;10.75;;;5.55;;
28519;SDS011;15732;48.534;20.382;2022-12-29T17:55:33;14.77;;;7.75;;
28519;SDS011;15732;48.534;20.382;2022-12-29T17:58:00;23.25;;;9.68;;
28519;SDS011;15732;48.534;20.382;2022-12-29T18:00:32;29.40;;;10.38;;
28519;SDS011;15732;48.534;20.382;2022-12-29T18:05:30;38.30;;;13.95;;
28519;SDS011;15732;48.534;20.382;2022-12-29T18:08:18;36.95;;;14.73;;